createdAt,value
2022-10-02T00:01:47.519Z,21.28
2022-10-02T00:06:53.361Z,21.33
2022-10-02T00:11:58.701Z,21.28
2022-10-02T00:17:01.766Z,21.38
2022-10-02T00:22:45.592Z,21.26
2022-10-02T00:28:38.307Z,21.21
2022-10-02T00:34:22.286Z,21.27
2022-10-02T00:39:40.385Z,21.27
2022-10-02T00:45:16.154Z,21.21
2022-10-02T00:50:20.461Z,21.28
2022-10-02T00:55:44.553Z,21.28
2022-10-02T01:00:59.412Z,21.27
2022-10-02T01:06:01.247Z,21.35
2022-10-02T01:11:04.084Z,21.28
2022-10-02T01:16:14.340Z,21.36
2022-10-02T01:21:32.813Z,21.25
2022-10-02T01:26:34.903Z,21.39
2022-10-02T01:31:37.449Z,21.39
2022-10-02T01:36:39.524Z,21.32
2022-10-02T01:41:44.668Z,21.33
2022-10-02T01:47:07.702Z,21.36
2022-10-02T01:52:20.368Z,21.35
2022-10-02T01:57:37.382Z,21.29
2022-10-02T02:03:07.447Z,21.30
2022-10-02T02:08:50.827Z,21.31
2022-10-02T02:13:56.490Z,21.36
2022-10-02T02:19:02.431Z,21.41
2022-10-02T02:24:11.648Z,21.40
2022-10-02T02:29:16.903Z,21.38
2022-10-02T02:34:30.809Z,21.37
2022-10-02T02:39:40.629Z,21.35
2022-10-02T02:44:52.754Z,21.33
2022-10-02T02:50:03.660Z,21.31
2022-10-02T02:55:14.858Z,21.35
2022-10-02T03:00:17.671Z,21.44
2022-10-02T03:05:19.715Z,21.36
2022-10-02T03:10:37.335Z,21.29
2022-10-02T03:15:57.662Z,21.39
2022-10-02T03:21:08.327Z,21.42
2022-10-02T03:26:21.532Z,21.36
2022-10-02T03:31:27.097Z,21.42
2022-10-02T03:36:29.118Z,21.32
2022-10-02T03:41:30.989Z,21.38
2022-10-02T03:46:33.321Z,21.40
2022-10-02T03:51:35.546Z,21.39
2022-10-02T03:56:44.054Z,21.38
2022-10-02T04:01:50.976Z,21.39
2022-10-02T04:07:19.658Z,21.29
2022-10-02T04:12:33.178Z,21.25
2022-10-02T04:17:44.955Z,21.41
2022-10-02T04:23:03.954Z,21.33
2022-10-02T04:28:11.834Z,21.39
2022-10-02T04:33:18.150Z,21.43
2022-10-02T04:38:33.920Z,21.35
2022-10-02T04:44:00.461Z,21.37
2022-10-02T04:49:46.397Z,21.30
2022-10-02T04:55:18.839Z,21.36
2022-10-02T05:00:22.984Z,21.41
2022-10-02T05:05:30.661Z,21.41
2022-10-02T05:10:44.131Z,21.27
2022-10-02T05:15:52.138Z,21.36
2022-10-02T05:21:17.753Z,21.34
2022-10-02T05:26:38.103Z,21.40
2022-10-02T05:32:15.909Z,21.42
2022-10-02T05:37:23.618Z,21.37
2022-10-02T05:42:34.083Z,21.35
2022-10-02T05:47:41.613Z,21.39
2022-10-02T05:53:01.763Z,21.38
2022-10-02T05:58:07.292Z,21.35
2022-10-02T06:03:31.346Z,21.38
2022-10-02T06:08:36.244Z,21.38
2022-10-02T06:13:58.052Z,21.41
2022-10-02T06:19:19.966Z,21.38
2022-10-02T06:24:44.290Z,21.38
2022-10-02T06:29:51.355Z,21.27
2022-10-02T06:34:53.416Z,21.36
2022-10-02T06:40:32.580Z,21.35
2022-10-02T06:45:59.143Z,21.39
2022-10-02T06:51:22.846Z,21.38
2022-10-02T06:57:01.390Z,21.34
2022-10-02T07:02:17.758Z,21.36
2022-10-02T07:07:39.460Z,21.37
2022-10-02T07:13:18.212Z,21.34
2022-10-02T07:18:42.865Z,21.32
2022-10-02T07:24:02.661Z,21.34
2022-10-02T07:29:20.768Z,21.34
2022-10-02T07:34:36.259Z,21.37
2022-10-02T07:40:03.465Z,21.27
2022-10-02T07:45:23.492Z,21.35
2022-10-02T07:50:34.099Z,21.35
2022-10-02T07:55:41.743Z,21.38
2022-10-02T08:00:51.234Z,21.38
2022-10-02T08:05:55.506Z,21.22
2022-10-02T08:11:06.721Z,21.11
2022-10-02T08:16:10.849Z,21.11
2022-10-02T08:21:19.184Z,21.05
2022-10-02T08:26:25.199Z,21.01
2022-10-02T08:31:27.424Z,21.09
2022-10-02T08:36:47.245Z,21.23
2022-10-02T08:42:04.442Z,21.12
2022-10-02T08:47:44.295Z,21.01
2022-10-02T08:53:04.368Z,21.26
2022-10-02T08:58:22.477Z,21.41
2022-10-02T09:03:59.051Z,21.18
2022-10-02T09:09:55.240Z,21.14
2022-10-02T09:15:22.666Z,21.23
2022-10-02T09:21:02.198Z,21.01
2022-10-02T09:26:44.815Z,20.99
2022-10-02T09:33:00.110Z,20.68
2022-10-02T09:38:06.310Z,21.20
2022-10-02T09:43:20.622Z,21.30
2022-10-02T09:49:11.440Z,21.39
2022-10-02T09:54:38.141Z,21.51
2022-10-02T09:59:45.831Z,21.23
2022-10-02T10:05:26.198Z,21.28
2022-10-02T10:10:33.811Z,21.26
2022-10-02T10:16:06.214Z,21.25
2022-10-02T10:21:26.816Z,21.24
2022-10-02T10:26:56.929Z,21.20
2022-10-02T10:32:07.900Z,21.32
2022-10-02T10:37:50.469Z,21.18
2022-10-02T10:43:33.658Z,21.16
2022-10-02T10:48:52.860Z,21.19
2022-10-02T10:54:16.148Z,21.17
2022-10-02T10:59:34.510Z,21.16
2022-10-02T11:05:03.420Z,21.24
2022-10-02T11:10:31.909Z,21.20
2022-10-02T11:15:59.471Z,21.17
2022-10-02T11:21:35.830Z,21.32
2022-10-02T11:27:11.584Z,21.20
2022-10-02T11:32:32.150Z,21.43
2022-10-02T11:37:52.485Z,21.39
2022-10-02T11:43:15.751Z,21.37
2022-10-02T11:48:41.590Z,21.47
2022-10-02T11:53:47.631Z,21.52
2022-10-02T11:59:10.940Z,21.61
2022-10-02T12:04:19.175Z,21.74
2022-10-02T12:09:42.747Z,21.77
2022-10-02T12:14:59.654Z,21.82
2022-10-02T12:20:38.798Z,21.77
2022-10-02T12:26:22.715Z,21.69
2022-10-02T12:31:45.825Z,21.55
2022-10-02T12:36:58.654Z,21.68
2022-10-02T12:42:37.543Z,21.61
2022-10-02T12:47:54.666Z,21.54
2022-10-02T12:53:27.328Z,21.44
2022-10-02T12:58:46.090Z,21.42
2022-10-02T13:04:22.582Z,21.44
2022-10-02T13:10:11.306Z,21.44
2022-10-02T13:15:23.657Z,21.51
2022-10-02T13:20:54.400Z,21.48
2022-10-02T13:26:13.543Z,21.35
2022-10-02T13:31:37.161Z,21.45
2022-10-02T13:36:56.049Z,21.45
2022-10-02T13:42:29.214Z,21.43
2022-10-02T13:47:41.911Z,21.52
2022-10-02T13:52:52.529Z,21.46
2022-10-02T13:58:12.529Z,21.48
2022-10-02T14:03:46.339Z,21.45
2022-10-02T14:09:08.911Z,21.46
2022-10-02T14:14:44.796Z,21.46
2022-10-02T14:20:11.281Z,21.44
2022-10-02T14:25:26.032Z,21.47
2022-10-02T14:30:52.287Z,21.47
2022-10-02T14:36:25.118Z,21.51
2022-10-02T14:41:38.846Z,21.48
2022-10-02T14:47:05.657Z,21.46
2022-10-02T14:52:26.266Z,21.46
2022-10-02T14:57:31.118Z,21.50
2022-10-02T15:02:54.413Z,21.48
2022-10-02T15:07:58.008Z,21.50
2022-10-02T15:13:14.666Z,21.52
2022-10-02T15:18:20.717Z,21.56
2022-10-02T15:23:44.793Z,21.42
2022-10-02T15:28:56.610Z,21.57
2022-10-02T15:34:32.485Z,21.55
2022-10-02T15:40:19.690Z,21.55
2022-10-02T15:45:42.463Z,21.50
2022-10-02T15:51:18.777Z,21.54
2022-10-02T15:56:35.733Z,21.55
2022-10-02T16:01:51.005Z,21.32
2022-10-02T16:06:53.845Z,21.32
2022-10-02T16:12:26.770Z,21.22
2022-10-02T16:17:57.657Z,21.14
2022-10-02T16:23:18.904Z,21.16
2022-10-02T16:28:23.463Z,21.14
2022-10-02T16:33:52.950Z,21.21
2022-10-02T16:39:16.214Z,21.35
2022-10-02T16:44:48.049Z,21.41
2022-10-02T16:49:58.358Z,21.43
2022-10-02T16:55:21.969Z,21.39
2022-10-02T17:00:40.080Z,21.44
2022-10-02T17:05:51.985Z,21.42
2022-10-02T17:11:14.910Z,21.43
2022-10-02T17:16:33.805Z,21.43
2022-10-02T17:21:38.485Z,21.49
2022-10-02T17:26:46.038Z,21.52
2022-10-02T17:31:56.300Z,21.52
2022-10-02T17:37:13.618Z,21.47
2022-10-02T17:42:41.474Z,21.47
2022-10-02T17:47:49.370Z,21.48
2022-10-02T17:53:20.717Z,21.49
2022-10-02T17:58:40.738Z,21.42
2022-10-02T18:04:03.034Z,21.45
2022-10-02T18:09:38.034Z,21.47
2022-10-02T18:14:51.910Z,21.51
2022-10-02T18:20:14.698Z,21.42
2022-10-02T18:25:33.103Z,21.50
2022-10-02T18:30:49.376Z,21.44
2022-10-02T18:36:06.521Z,21.43
2022-10-02T18:41:41.303Z,21.50
2022-10-02T18:47:02.725Z,21.43
2022-10-02T18:52:16.198Z,21.47
2022-10-02T18:57:37.746Z,21.47
2022-10-02T19:03:00.891Z,21.50
2022-10-02T19:08:05.454Z,21.45
2022-10-02T19:13:17.524Z,21.55
2022-10-02T19:18:29.838Z,21.36
2022-10-02T19:23:38.406Z,21.43
2022-10-02T19:28:51.458Z,21.48
2022-10-02T19:33:58.148Z,21.47
2022-10-02T19:39:07.873Z,21.58
2022-10-02T19:44:33.216Z,21.54
2022-10-02T19:49:40.271Z,21.60
2022-10-02T19:54:42.294Z,21.52
2022-10-02T19:59:54.395Z,21.50
2022-10-02T20:05:01.999Z,21.45
2022-10-02T20:10:26.734Z,21.45
2022-10-02T20:16:08.241Z,21.37
2022-10-02T20:21:30.424Z,21.44
2022-10-02T20:26:37.532Z,21.47
2022-10-02T20:31:50.012Z,21.61
2022-10-02T20:36:58.619Z,21.64
2022-10-02T20:42:25.496Z,21.56
2022-10-02T20:47:45.662Z,21.61
2022-10-02T20:53:18.765Z,21.63
2022-10-02T20:58:39.334Z,21.59
2022-10-02T21:09:48.183Z,21.52
2022-10-02T21:15:23.347Z,21.55
2022-10-02T21:20:49.613Z,21.58
2022-10-02T21:26:27.964Z,21.47
2022-10-02T21:31:41.822Z,21.49
2022-10-02T21:36:53.165Z,21.57
2022-10-02T21:42:18.051Z,21.53
2022-10-02T21:47:22.878Z,21.50
2022-10-02T21:52:43.604Z,21.52
2022-10-02T21:58:04.347Z,21.54
2022-10-02T22:03:31.255Z,21.56
2022-10-02T22:08:51.713Z,21.56
2022-10-02T22:13:58.042Z,21.51
2022-10-02T22:19:23.016Z,21.54
2022-10-02T22:24:30.747Z,21.49
2022-10-02T22:29:47.449Z,21.50
2022-10-02T22:35:14.612Z,21.56
2022-10-02T22:40:23.568Z,21.54
2022-10-02T22:45:44.869Z,21.52
2022-10-02T22:51:12.826Z,21.52
2022-10-02T22:56:28.989Z,21.50
2022-10-02T23:01:39.075Z,21.54
2022-10-02T23:06:56.119Z,21.55
2022-10-02T23:12:43.856Z,21.55
2022-10-02T23:18:22.195Z,21.55
2022-10-02T23:23:35.970Z,21.57
2022-10-02T23:28:46.598Z,21.55
2022-10-02T23:33:56.367Z,21.54
2022-10-02T23:39:06.632Z,21.52
2022-10-02T23:44:20.609Z,21.51
2022-10-02T23:49:27.655Z,21.55
2022-10-02T23:54:33.559Z,21.55
